sensor_id;sensor_type;location;lat;lon;timestamp;temperature;humidity
21622;DHT22;10973;46.706;12.340;2023-04-09T00:00:15;3.30;99.90
21622;DHT22;10973;46.706;12.340;2023-04-09T00:02:43;3.20;99.90
21622;DHT22;10973;46.706;12.340;2023-04-09T00:05:11;3.10;99.90
21622;DHT22;10973;46.706;12.340;2023-04-09T00:07:38;3.10;99.90
21622;DHT22;10973;46.706;12.340;2023-04-09T00:10:06;3.00;99.90
21622;DHT22;10973;46.706;12.340;2023-04-09T00:12:37;3.00;99.90
21622;DHT22;10973;46.706;12.340;2023-04-09T00:15:05;3.00;99.90
21622;DHT22;10973;46.706;12.340;2023-04-09T00:17:37;2.90;99.90
21622;DHT22;10973;46.706;12.340;2023-04-09T00:20:05;2.80;99.90
21622;DHT22;10973;46.706;12.340;2023-04-09T00:22:32;2.80;99.90
21622;DHT22;10973;46.706;12.340;2023-04-09T00:25:00;2.90;99.90
21622;DHT22;10973;46.706;12.340;2023-04-09T00:27:27;2.90;99.90
21622;DHT22;10973;46.706;12.340;2023-04-09T00:29:54;2.70;99.90
21622;DHT22;10973;46.706;12.340;2023-04-09T00:32:21;2.60;99.90
21622;DHT22;10973;46.706;12.340;2023-04-09T00:34:48;2.60;99.90
21622;DHT22;10973;46.706;12.340;2023-04-09T00:37:15;2.50;99.90
21622;DHT22;10973;46.706;12.340;2023-04-09T00:39:42;2.50;99.90
21622;DHT22;10973;46.706;12.340;2023-04-09T00:42:10;2.40;99.90
21622;DHT22;10973;46.706;12.340;2023-04-09T00:44:37;2.30;99.90
21622;DHT22;10973;46.706;12.340;2023-04-09T00:47:04;2.30;99.90
21622;DHT22;10973;46.706;12.340;2023-04-09T00:49:32;2.30;99.90
21622;DHT22;10973;46.706;12.340;2023-04-09T00:52:00;2.20;99.90
21622;DHT22;10973;46.706;12.340;2023-04-09T00:54:27;2.20;99.90
21622;DHT22;10973;46.706;12.340;2023-04-09T00:56:54;2.10;99.90
21622;DHT22;10973;46.706;12.340;2023-04-09T00:59:24;2.10;99.90
21622;DHT22;10973;46.706;12.340;2023-04-09T01:01:51;2.00;99.90
21622;DHT22;10973;46.706;12.340;2023-04-09T01:04:18;2.00;99.90
21622;DHT22;10973;46.706;12.340;2023-04-09T01:07:12;1.90;99.90
21622;DHT22;10973;46.706;12.340;2023-04-09T01:15:33;1.70;99.90
21622;DHT22;10973;46.706;12.340;2023-04-09T01:18:21;1.70;99.90
21622;DHT22;10973;46.706;12.340;2023-04-09T01:21:19;1.60;99.90
21622;DHT22;10973;46.706;12.340;2023-04-09T01:26:57;1.50;99.90
21622;DHT22;10973;46.706;12.340;2023-04-09T01:29:38;1.50;99.90
21622;DHT22;10973;46.706;12.340;2023-04-09T01:32:11;1.40;99.90
21622;DHT22;10973;46.706;12.340;2023-04-09T01:34:44;1.40;99.90
21622;DHT22;10973;46.706;12.340;2023-04-09T01:37:14;1.40;99.90
21622;DHT22;10973;46.706;12.340;2023-04-09T01:39:43;1.40;99.90
21622;DHT22;10973;46.706;12.340;2023-04-09T01:42:12;1.40;99.90
21622;DHT22;10973;46.706;12.340;2023-04-09T01:44:43;1.40;99.90
21622;DHT22;10973;46.706;12.340;2023-04-09T01:47:12;1.40;99.90
21622;DHT22;10973;46.706;12.340;2023-04-09T01:49:40;1.40;99.90
21622;DHT22;10973;46.706;12.340;2023-04-09T01:52:10;1.30;99.90
21622;DHT22;10973;46.706;12.340;2023-04-09T01:54:38;1.30;99.90
21622;DHT22;10973;46.706;12.340;2023-04-09T01:57:05;1.20;99.90
21622;DHT22;10973;46.706;12.340;2023-04-09T01:59:32;1.20;99.90
21622;DHT22;10973;46.706;12.340;2023-04-09T02:02:05;1.10;99.90
21622;DHT22;10973;46.706;12.340;2023-04-09T02:04:43;1.20;99.90
21622;DHT22;10973;46.706;12.340;2023-04-09T02:09:54;1.10;99.90
21622;DHT22;10973;46.706;12.340;2023-04-09T02:12:24;1.10;99.90
21622;DHT22;10973;46.706;12.340;2023-04-09T02:14:52;1.00;99.90
21622;DHT22;10973;46.706;12.340;2023-04-09T02:17:20;1.10;99.90
21622;DHT22;10973;46.706;12.340;2023-04-09T02:19:47;1.10;99.90
21622;DHT22;10973;46.706;12.340;2023-04-09T02:22:15;1.10;99.90
21622;DHT22;10973;46.706;12.340;2023-04-09T02:24:44;1.10;99.90
21622;DHT22;10973;46.706;12.340;2023-04-09T02:27:12;1.00;99.90
21622;DHT22;10973;46.706;12.340;2023-04-09T02:29:39;0.90;99.90
21622;DHT22;10973;46.706;12.340;2023-04-09T02:32:07;0.90;99.90
21622;DHT22;10973;46.706;12.340;2023-04-09T02:34:34;1.00;99.90
21622;DHT22;10973;46.706;12.340;2023-04-09T02:37:02;1.00;99.90
21622;DHT22;10973;46.706;12.340;2023-04-09T02:39:29;0.90;99.90
21622;DHT22;10973;46.706;12.340;2023-04-09T02:41:56;0.80;99.90
21622;DHT22;10973;46.706;12.340;2023-04-09T02:44:23;0.70;99.90
21622;DHT22;10973;46.706;12.340;2023-04-09T02:46:51;0.60;99.90
21622;DHT22;10973;46.706;12.340;2023-04-09T02:49:18;0.60;99.90
21622;DHT22;10973;46.706;12.340;2023-04-09T02:51:45;0.60;99.90
21622;DHT22;10973;46.706;12.340;2023-04-09T02:54:12;0.60;99.90
21622;DHT22;10973;46.706;12.340;2023-04-09T02:56:39;0.60;99.90
21622;DHT22;10973;46.706;12.340;2023-04-09T03:01:35;0.50;99.90
21622;DHT22;10973;46.706;12.340;2023-04-09T03:04:02;0.40;99.90
21622;DHT22;10973;46.706;12.340;2023-04-09T03:06:30;0.50;99.90
21622;DHT22;10973;46.706;12.340;2023-04-09T03:08:57;0.50;99.90
21622;DHT22;10973;46.706;12.340;2023-04-09T03:11:24;0.50;99.90
21622;DHT22;10973;46.706;12.340;2023-04-09T03:13:51;0.40;99.90
21622;DHT22;10973;46.706;12.340;2023-04-09T03:16:18;0.50;99.90
21622;DHT22;10973;46.706;12.340;2023-04-09T03:18:46;0.50;99.90
21622;DHT22;10973;46.706;12.340;2023-04-09T03:21:13;0.50;99.90
21622;DHT22;10973;46.706;12.340;2023-04-09T03:23:40;0.50;99.90
21622;DHT22;10973;46.706;12.340;2023-04-09T03:26:08;0.40;99.90
21622;DHT22;10973;46.706;12.340;2023-04-09T03:28:35;0.30;99.90
21622;DHT22;10973;46.706;12.340;2023-04-09T03:31:02;0.30;99.90
21622;DHT22;10973;46.706;12.340;2023-04-09T03:33:29;0.30;99.90
21622;DHT22;10973;46.706;12.340;2023-04-09T03:35:57;0.30;99.90
21622;DHT22;10973;46.706;12.340;2023-04-09T03:38:24;0.20;99.90
21622;DHT22;10973;46.706;12.340;2023-04-09T03:40:51;0.10;99.90
21622;DHT22;10973;46.706;12.340;2023-04-09T03:43:18;0.00;99.90
21622;DHT22;10973;46.706;12.340;2023-04-09T03:45:46;0.00;99.90
21622;DHT22;10973;46.706;12.340;2023-04-09T03:48:13;0.00;99.90
21622;DHT22;10973;46.706;12.340;2023-04-09T03:50:40;0.00;99.90
21622;DHT22;10973;46.706;12.340;2023-04-09T03:53:08;-0.10;99.90
21622;DHT22;10973;46.706;12.340;2023-04-09T03:55:36;-0.10;99.90
21622;DHT22;10973;46.706;12.340;2023-04-09T03:58:04;0.00;99.90
21622;DHT22;10973;46.706;12.340;2023-04-09T04:00:31;-0.10;99.90
21622;DHT22;10973;46.706;12.340;2023-04-09T04:02:58;-0.30;99.90
21622;DHT22;10973;46.706;12.340;2023-04-09T04:05:25;-0.30;99.90
21622;DHT22;10973;46.706;12.340;2023-04-09T04:07:53;-0.20;99.90
21622;DHT22;10973;46.706;12.340;2023-04-09T04:10:20;-0.10;99.90
21622;DHT22;10973;46.706;12.340;2023-04-09T04:12:47;-0.20;99.90
21622;DHT22;10973;46.706;12.340;2023-04-09T04:15:14;-0.20;99.90
21622;DHT22;10973;46.706;12.340;2023-04-09T04:17:43;-0.40;99.90
21622;DHT22;10973;46.706;12.340;2023-04-09T04:20:11;-0.30;99.90
21622;DHT22;10973;46.706;12.340;2023-04-09T04:22:38;-0.20;99.90
21622;DHT22;10973;46.706;12.340;2023-04-09T04:25:05;-0.30;99.90
21622;DHT22;10973;46.706;12.340;2023-04-09T04:27:33;-0.40;99.90
21622;DHT22;10973;46.706;12.340;2023-04-09T04:30:00;-0.50;99.90
21622;DHT22;10973;46.706;12.340;2023-04-09T04:32:27;-0.50;99.90
21622;DHT22;10973;46.706;12.340;2023-04-09T04:34:55;-0.40;99.90
21622;DHT22;10973;46.706;12.340;2023-04-09T04:37:22;-0.50;99.90
21622;DHT22;10973;46.706;12.340;2023-04-09T04:39:49;-0.60;99.90
21622;DHT22;10973;46.706;12.340;2023-04-09T04:42:17;-0.50;99.90
21622;DHT22;10973;46.706;12.340;2023-04-09T04:44:44;-0.40;99.90
21622;DHT22;10973;46.706;12.340;2023-04-09T04:47:11;-0.30;99.90
21622;DHT22;10973;46.706;12.340;2023-04-09T04:49:38;-0.40;99.90
21622;DHT22;10973;46.706;12.340;2023-04-09T04:52:05;-0.40;99.90
21622;DHT22;10973;46.706;12.340;2023-04-09T04:54:33;-0.50;99.90
21622;DHT22;10973;46.706;12.340;2023-04-09T04:57:00;-0.40;99.90
21622;DHT22;10973;46.706;12.340;2023-04-09T04:59:28;-0.50;99.90
21622;DHT22;10973;46.706;12.340;2023-04-09T05:01:55;-0.60;99.90
21622;DHT22;10973;46.706;12.340;2023-04-09T05:04:22;-0.70;99.90
21622;DHT22;10973;46.706;12.340;2023-04-09T05:06:49;-0.70;99.90
21622;DHT22;10973;46.706;12.340;2023-04-09T05:09:17;-0.60;99.90
21622;DHT22;10973;46.706;12.340;2023-04-09T05:11:47;-0.70;99.90
21622;DHT22;10973;46.706;12.340;2023-04-09T05:14:15;-0.80;99.90
21622;DHT22;10973;46.706;12.340;2023-04-09T05:16:44;-0.80;99.90
21622;DHT22;10973;46.706;12.340;2023-04-09T05:19:12;-0.80;99.90
21622;DHT22;10973;46.706;12.340;2023-04-09T05:21:39;-0.60;99.90
21622;DHT22;10973;46.706;12.340;2023-04-09T05:24:06;-0.70;99.90
21622;DHT22;10973;46.706;12.340;2023-04-09T05:26:33;-0.60;99.90
21622;DHT22;10973;46.706;12.340;2023-04-09T05:29:01;-0.70;99.90
21622;DHT22;10973;46.706;12.340;2023-04-09T05:31:28;-0.80;99.90
21622;DHT22;10973;46.706;12.340;2023-04-09T05:33:55;-0.70;99.90
21622;DHT22;10973;46.706;12.340;2023-04-09T05:36:22;-0.80;99.90
21622;DHT22;10973;46.706;12.340;2023-04-09T05:38:49;-0.80;99.90
21622;DHT22;10973;46.706;12.340;2023-04-09T05:41:17;-0.70;99.90
21622;DHT22;10973;46.706;12.340;2023-04-09T05:43:44;-0.60;99.90
21622;DHT22;10973;46.706;12.340;2023-04-09T05:46:11;-0.70;99.90
21622;DHT22;10973;46.706;12.340;2023-04-09T05:48:38;-0.60;99.90
21622;DHT22;10973;46.706;12.340;2023-04-09T05:51:06;-0.60;99.90
21622;DHT22;10973;46.706;12.340;2023-04-09T05:53:33;-0.60;99.90
21622;DHT22;10973;46.706;12.340;2023-04-09T05:56:00;-0.60;99.90
21622;DHT22;10973;46.706;12.340;2023-04-09T05:58:28;-0.60;99.90
21622;DHT22;10973;46.706;12.340;2023-04-09T06:00:55;-0.60;99.90
21622;DHT22;10973;46.706;12.340;2023-04-09T06:03:22;-0.60;99.90
21622;DHT22;10973;46.706;12.340;2023-04-09T06:05:49;-0.50;99.90
21622;DHT22;10973;46.706;12.340;2023-04-09T06:08:16;-0.10;99.90
21622;DHT22;10973;46.706;12.340;2023-04-09T06:10:44;-0.40;99.90
21622;DHT22;10973;46.706;12.340;2023-04-09T06:13:12;-0.40;99.90
21622;DHT22;10973;46.706;12.340;2023-04-09T06:15:39;-0.30;99.90
21622;DHT22;10973;46.706;12.340;2023-04-09T06:18:07;-0.20;99.90
21622;DHT22;10973;46.706;12.340;2023-04-09T06:20:34;-0.20;99.90
21622;DHT22;10973;46.706;12.340;2023-04-09T06:23:01;-0.10;99.90
21622;DHT22;10973;46.706;12.340;2023-04-09T06:25:28;-0.10;99.90
21622;DHT22;10973;46.706;12.340;2023-04-09T06:27:56;0.00;99.90
21622;DHT22;10973;46.706;12.340;2023-04-09T06:30:23;0.00;99.90
21622;DHT22;10973;46.706;12.340;2023-04-09T06:32:50;0.10;99.90
21622;DHT22;10973;46.706;12.340;2023-04-09T06:35:21;0.20;99.90
21622;DHT22;10973;46.706;12.340;2023-04-09T06:37:49;0.30;99.90
21622;DHT22;10973;46.706;12.340;2023-04-09T06:40:16;0.30;99.90
21622;DHT22;10973;46.706;12.340;2023-04-09T06:42:45;0.40;99.90
21622;DHT22;10973;46.706;12.340;2023-04-09T06:45:12;0.50;99.90
21622;DHT22;10973;46.706;12.340;2023-04-09T06:47:39;0.50;99.90
21622;DHT22;10973;46.706;12.340;2023-04-09T06:50:07;0.60;99.90
21622;DHT22;10973;46.706;12.340;2023-04-09T06:52:34;0.80;99.90
21622;DHT22;10973;46.706;12.340;2023-04-09T06:55:01;0.90;99.90
21622;DHT22;10973;46.706;12.340;2023-04-09T06:57:28;1.00;99.90
21622;DHT22;10973;46.706;12.340;2023-04-09T06:59:56;1.20;99.90
21622;DHT22;10973;46.706;12.340;2023-04-09T07:02:23;1.40;99.90
21622;DHT22;10973;46.706;12.340;2023-04-09T07:04:50;1.50;99.90
21622;DHT22;10973;46.706;12.340;2023-04-09T07:07:18;1.70;99.90
21622;DHT22;10973;46.706;12.340;2023-04-09T07:09:45;1.80;99.90
21622;DHT22;10973;46.706;12.340;2023-04-09T07:12:12;1.90;99.90
21622;DHT22;10973;46.706;12.340;2023-04-09T07:14:40;2.00;99.90
21622;DHT22;10973;46.706;12.340;2023-04-09T07:17:07;2.10;99.90
21622;DHT22;10973;46.706;12.340;2023-04-09T07:19:34;2.20;99.90
21622;DHT22;10973;46.706;12.340;2023-04-09T07:22:03;2.30;99.90
21622;DHT22;10973;46.706;12.340;2023-04-09T07:24:30;2.40;99.90
21622;DHT22;10973;46.706;12.340;2023-04-09T07:26:57;2.50;99.90
21622;DHT22;10973;46.706;12.340;2023-04-09T07:29:29;2.50;99.90
21622;DHT22;10973;46.706;12.340;2023-04-09T07:31:57;2.60;99.90
21622;DHT22;10973;46.706;12.340;2023-04-09T07:34:24;2.70;99.90
21622;DHT22;10973;46.706;12.340;2023-04-09T07:36:51;2.80;99.90
21622;DHT22;10973;46.706;12.340;2023-04-09T07:39:19;2.90;99.70
21622;DHT22;10973;46.706;12.340;2023-04-09T07:41:47;2.90;98.40
21622;DHT22;10973;46.706;12.340;2023-04-09T07:44:14;2.90;98.40
21622;DHT22;10973;46.706;12.340;2023-04-09T07:46:42;3.10;98.50
21622;DHT22;10973;46.706;12.340;2023-04-09T07:49:10;3.20;97.70
21622;DHT22;10973;46.706;12.340;2023-04-09T07:51:37;3.30;97.70
21622;DHT22;10973;46.706;12.340;2023-04-09T07:54:04;3.30;97.10
21622;DHT22;10973;46.706;12.340;2023-04-09T07:56:31;3.40;97.20
21622;DHT22;10973;46.706;12.340;2023-04-09T07:58:58;3.40;96.90
21622;DHT22;10973;46.706;12.340;2023-04-09T08:01:26;3.50;96.90
21622;DHT22;10973;46.706;12.340;2023-04-09T08:03:54;3.60;97.40
21622;DHT22;10973;46.706;12.340;2023-04-09T08:06:22;3.60;97.10
21622;DHT22;10973;46.706;12.340;2023-04-09T08:08:49;3.70;97.30
21622;DHT22;10973;46.706;12.340;2023-04-09T08:11:17;3.80;97.00
21622;DHT22;10973;46.706;12.340;2023-04-09T08:13:44;3.80;96.30
21622;DHT22;10973;46.706;12.340;2023-04-09T08:16:12;4.00;95.90
21622;DHT22;10973;46.706;12.340;2023-04-09T08:18:39;4.00;94.90
21622;DHT22;10973;46.706;12.340;2023-04-09T08:21:06;4.10;94.50
21622;DHT22;10973;46.706;12.340;2023-04-09T08:23:33;4.00;93.80
21622;DHT22;10973;46.706;12.340;2023-04-09T08:26:00;4.10;94.30
21622;DHT22;10973;46.706;12.340;2023-04-09T08:28:28;4.10;94.00
21622;DHT22;10973;46.706;12.340;2023-04-09T08:30:55;4.00;94.00
21622;DHT22;10973;46.706;12.340;2023-04-09T08:33:22;4.10;93.40
21622;DHT22;10973;46.706;12.340;2023-04-09T08:35:49;4.30;93.10
21622;DHT22;10973;46.706;12.340;2023-04-09T08:38:18;4.30;92.60
21622;DHT22;10973;46.706;12.340;2023-04-09T08:40:45;4.20;92.40
21622;DHT22;10973;46.706;12.340;2023-04-09T08:43:15;4.20;91.30
21622;DHT22;10973;46.706;12.340;2023-04-09T08:45:45;4.30;90.80
21622;DHT22;10973;46.706;12.340;2023-04-09T08:48:13;4.40;91.50
21622;DHT22;10973;46.706;12.340;2023-04-09T08:50:40;4.60;91.80
21622;DHT22;10973;46.706;12.340;2023-04-09T08:53:09;4.70;90.80
21622;DHT22;10973;46.706;12.340;2023-04-09T08:55:37;4.80;86.30
21622;DHT22;10973;46.706;12.340;2023-04-09T08:58:05;4.80;86.10
21622;DHT22;10973;46.706;12.340;2023-04-09T09:00:32;4.80;83.40
21622;DHT22;10973;46.706;12.340;2023-04-09T09:05:42;4.80;82.60
21622;DHT22;10973;46.706;12.340;2023-04-09T09:08:13;4.80;82.10
21622;DHT22;10973;46.706;12.340;2023-04-09T09:10:49;4.80;81.80
21622;DHT22;10973;46.706;12.340;2023-04-09T09:13:24;4.90;82.40
21622;DHT22;10973;46.706;12.340;2023-04-09T09:16:10;5.00;81.60
21622;DHT22;10973;46.706;12.340;2023-04-09T09:18:43;5.10;81.20
21622;DHT22;10973;46.706;12.340;2023-04-09T09:21:13;5.10;80.60
21622;DHT22;10973;46.706;12.340;2023-04-09T09:23:43;5.20;82.00
21622;DHT22;10973;46.706;12.340;2023-04-09T09:26:20;5.20;77.10
21622;DHT22;10973;46.706;12.340;2023-04-09T09:28:49;5.20;77.10
21622;DHT22;10973;46.706;12.340;2023-04-09T09:31:19;5.20;76.80
21622;DHT22;10973;46.706;12.340;2023-04-09T09:33:48;5.20;75.90
21622;DHT22;10973;46.706;12.340;2023-04-09T09:36:30;5.20;77.50
21622;DHT22;10973;46.706;12.340;2023-04-09T09:39:01;5.30;77.00
21622;DHT22;10973;46.706;12.340;2023-04-09T09:41:29;5.30;77.20
21622;DHT22;10973;46.706;12.340;2023-04-09T09:43:56;5.40;77.50
21622;DHT22;10973;46.706;12.340;2023-04-09T09:46:25;5.50;77.60
21622;DHT22;10973;46.706;12.340;2023-04-09T09:48:52;5.60;77.10
21622;DHT22;10973;46.706;12.340;2023-04-09T09:51:24;5.60;76.00
21622;DHT22;10973;46.706;12.340;2023-04-09T09:53:54;5.70;76.80
21622;DHT22;10973;46.706;12.340;2023-04-09T09:56:26;5.70;71.20
21622;DHT22;10973;46.706;12.340;2023-04-09T09:59:00;5.70;70.20
21622;DHT22;10973;46.706;12.340;2023-04-09T10:01:33;5.70;69.20
21622;DHT22;10973;46.706;12.340;2023-04-09T10:04:01;5.80;67.20
21622;DHT22;10973;46.706;12.340;2023-04-09T10:06:34;5.90;67.00
21622;DHT22;10973;46.706;12.340;2023-04-09T10:09:03;6.00;68.10
21622;DHT22;10973;46.706;12.340;2023-04-09T10:11:35;6.10;69.00
21622;DHT22;10973;46.706;12.340;2023-04-09T10:14:03;6.10;68.20
21622;DHT22;10973;46.706;12.340;2023-04-09T10:16:31;6.10;68.30
21622;DHT22;10973;46.706;12.340;2023-04-09T10:19:00;6.20;69.30
21622;DHT22;10973;46.706;12.340;2023-04-09T10:21:48;6.30;67.60
21622;DHT22;10973;46.706;12.340;2023-04-09T10:24:39;6.30;66.50
21622;DHT22;10973;46.706;12.340;2023-04-09T10:27:14;6.40;64.20
21622;DHT22;10973;46.706;12.340;2023-04-09T10:29:45;6.40;63.40
21622;DHT22;10973;46.706;12.340;2023-04-09T10:32:21;6.40;64.50
21622;DHT22;10973;46.706;12.340;2023-04-09T10:34:49;6.40;60.60
21622;DHT22;10973;46.706;12.340;2023-04-09T10:37:22;6.70;60.70
21622;DHT22;10973;46.706;12.340;2023-04-09T10:39:52;6.70;61.10
21622;DHT22;10973;46.706;12.340;2023-04-09T10:42:27;6.80;60.30
21622;DHT22;10973;46.706;12.340;2023-04-09T10:45:11;7.00;60.80
21622;DHT22;10973;46.706;12.340;2023-04-09T10:47:41;8.00;59.20
21622;DHT22;10973;46.706;12.340;2023-04-09T10:50:19;8.80;55.70
21622;DHT22;10973;46.706;12.340;2023-04-09T10:52:54;8.60;55.20
21622;DHT22;10973;46.706;12.340;2023-04-09T10:55:41;8.70;55.50
21622;DHT22;10973;46.706;12.340;2023-04-09T10:58:15;8.70;56.10
21622;DHT22;10973;46.706;12.340;2023-04-09T11:00:46;9.40;57.10
21622;DHT22;10973;46.706;12.340;2023-04-09T11:06:03;9.80;55.70
21622;DHT22;10973;46.706;12.340;2023-04-09T11:08:32;10.70;54.50
21622;DHT22;10973;46.706;12.340;2023-04-09T11:11:00;11.30;52.40
21622;DHT22;10973;46.706;12.340;2023-04-09T11:13:30;11.60;48.80
21622;DHT22;10973;46.706;12.340;2023-04-09T11:15:58;10.50;49.40
21622;DHT22;10973;46.706;12.340;2023-04-09T11:18:28;10.30;50.50
21622;DHT22;10973;46.706;12.340;2023-04-09T11:20:57;10.30;52.30
21622;DHT22;10973;46.706;12.340;2023-04-09T11:25:54;12.50;48.10
21622;DHT22;10973;46.706;12.340;2023-04-09T11:28:22;14.20;47.40
21622;DHT22;10973;46.706;12.340;2023-04-09T11:30:50;14.30;48.10
21622;DHT22;10973;46.706;12.340;2023-04-09T11:33:18;15.00;46.80
21622;DHT22;10973;46.706;12.340;2023-04-09T11:35:47;14.90;44.70
21622;DHT22;10973;46.706;12.340;2023-04-09T11:38:15;14.60;44.30
21622;DHT22;10973;46.706;12.340;2023-04-09T11:40:43;14.90;44.40
21622;DHT22;10973;46.706;12.340;2023-04-09T11:43:11;15.30;41.40
21622;DHT22;10973;46.706;12.340;2023-04-09T11:45:38;15.40;41.50
21622;DHT22;10973;46.706;12.340;2023-04-09T12:13:31;14.90;38.70
21622;DHT22;10973;46.706;12.340;2023-04-09T12:15:59;15.30;38.80
21622;DHT22;10973;46.706;12.340;2023-04-09T12:18:27;14.80;37.70
21622;DHT22;10973;46.706;12.340;2023-04-09T12:20:55;13.60;37.60
21622;DHT22;10973;46.706;12.340;2023-04-09T12:23:22;13.50;38.60
21622;DHT22;10973;46.706;12.340;2023-04-09T12:25:49;13.10;39.30
21622;DHT22;10973;46.706;12.340;2023-04-09T12:28:16;12.50;39.70
21622;DHT22;10973;46.706;12.340;2023-04-09T12:30:44;11.90;38.80
21622;DHT22;10973;46.706;12.340;2023-04-09T12:33:11;11.50;39.30
21622;DHT22;10973;46.706;12.340;2023-04-09T12:35:38;11.10;39.50
21622;DHT22;10973;46.706;12.340;2023-04-09T12:38:05;10.90;39.60
21622;DHT22;10973;46.706;12.340;2023-04-09T12:40:34;10.60;39.90
21622;DHT22;10973;46.706;12.340;2023-04-09T12:45:30;9.90;39.50
21622;DHT22;10973;46.706;12.340;2023-04-09T12:47:58;9.70;40.50
21622;DHT22;10973;46.706;12.340;2023-04-09T12:50:25;9.60;41.80
21622;DHT22;10973;46.706;12.340;2023-04-09T12:52:52;9.50;41.70
21622;DHT22;10973;46.706;12.340;2023-04-09T12:55:19;9.50;44.20
21622;DHT22;10973;46.706;12.340;2023-04-09T12:57:49;9.00;43.30
21622;DHT22;10973;46.706;12.340;2023-04-09T13:00:16;9.10;45.50
21622;DHT22;10973;46.706;12.340;2023-04-09T13:02:43;9.00;44.40
21622;DHT22;10973;46.706;12.340;2023-04-09T13:05:11;9.20;46.10
21622;DHT22;10973;46.706;12.340;2023-04-09T13:07:38;9.50;46.30
21622;DHT22;10973;46.706;12.340;2023-04-09T13:10:08;9.60;45.70
21622;DHT22;10973;46.706;12.340;2023-04-09T13:12:36;9.70;46.80
21622;DHT22;10973;46.706;12.340;2023-04-09T13:15:03;9.70;47.00
21622;DHT22;10973;46.706;12.340;2023-04-09T13:17:31;9.70;47.10
21622;DHT22;10973;46.706;12.340;2023-04-09T13:19:58;9.70;46.80
21622;DHT22;10973;46.706;12.340;2023-04-09T13:22:26;9.80;47.40
21622;DHT22;10973;46.706;12.340;2023-04-09T13:24:53;9.60;45.30
21622;DHT22;10973;46.706;12.340;2023-04-09T13:27:20;9.40;44.70
21622;DHT22;10973;46.706;12.340;2023-04-09T13:29:47;9.50;45.60
21622;DHT22;10973;46.706;12.340;2023-04-09T13:32:14;9.50;45.30
21622;DHT22;10973;46.706;12.340;2023-04-09T13:34:42;9.50;45.30
21622;DHT22;10973;46.706;12.340;2023-04-09T13:37:09;9.80;45.90
21622;DHT22;10973;46.706;12.340;2023-04-09T13:39:36;9.80;45.00
21622;DHT22;10973;46.706;12.340;2023-04-09T13:42:03;9.90;45.60
21622;DHT22;10973;46.706;12.340;2023-04-09T13:44:39;10.10;45.40
21622;DHT22;10973;46.706;12.340;2023-04-09T13:47:06;10.50;45.40
21622;DHT22;10973;46.706;12.340;2023-04-09T13:49:33;10.30;43.70
21622;DHT22;10973;46.706;12.340;2023-04-09T13:52:00;10.30;43.70
21622;DHT22;10973;46.706;12.340;2023-04-09T13:54:28;10.00;42.00
21622;DHT22;10973;46.706;12.340;2023-04-09T13:56:55;10.10;41.40
21622;DHT22;10973;46.706;12.340;2023-04-09T13:59:23;10.50;42.00
21622;DHT22;10973;46.706;12.340;2023-04-09T14:01:50;10.50;40.30
21622;DHT22;10973;46.706;12.340;2023-04-09T14:04:17;11.30;40.70
21622;DHT22;10973;46.706;12.340;2023-04-09T14:06:45;11.40;40.30
21622;DHT22;10973;46.706;12.340;2023-04-09T14:09:13;11.20;41.10
21622;DHT22;10973;46.706;12.340;2023-04-09T14:11:40;10.80;40.20
21622;DHT22;10973;46.706;12.340;2023-04-09T14:14:07;10.60;41.20
21622;DHT22;10973;46.706;12.340;2023-04-09T14:16:34;10.50;42.60
21622;DHT22;10973;46.706;12.340;2023-04-09T14:19:02;10.20;41.70
21622;DHT22;10973;46.706;12.340;2023-04-09T14:21:29;10.10;41.30
21622;DHT22;10973;46.706;12.340;2023-04-09T14:23:56;9.90;41.80
21622;DHT22;10973;46.706;12.340;2023-04-09T14:26:24;9.80;42.30
21622;DHT22;10973;46.706;12.340;2023-04-09T14:28:51;9.90;43.10
21622;DHT22;10973;46.706;12.340;2023-04-09T14:31:18;9.80;42.80
21622;DHT22;10973;46.706;12.340;2023-04-09T14:33:47;9.80;42.70
21622;DHT22;10973;46.706;12.340;2023-04-09T14:36:14;9.60;42.30
21622;DHT22;10973;46.706;12.340;2023-04-09T14:38:42;9.60;43.10
21622;DHT22;10973;46.706;12.340;2023-04-09T14:41:09;9.40;42.60
21622;DHT22;10973;46.706;12.340;2023-04-09T14:43:37;9.20;42.00
21622;DHT22;10973;46.706;12.340;2023-04-09T14:46:04;9.20;43.30
21622;DHT22;10973;46.706;12.340;2023-04-09T14:48:32;9.20;42.70
21622;DHT22;10973;46.706;12.340;2023-04-09T14:50:59;9.30;44.40
21622;DHT22;10973;46.706;12.340;2023-04-09T14:53:26;9.10;43.30
21622;DHT22;10973;46.706;12.340;2023-04-09T14:55:53;8.90;43.70
21622;DHT22;10973;46.706;12.340;2023-04-09T15:00:48;8.60;43.70
21622;DHT22;10973;46.706;12.340;2023-04-09T15:03:15;8.50;44.60
21622;DHT22;10973;46.706;12.340;2023-04-09T15:08:11;9.10;43.80
21622;DHT22;10973;46.706;12.340;2023-04-09T15:10:41;9.00;45.00
21622;DHT22;10973;46.706;12.340;2023-04-09T15:13:09;8.90;43.20
21622;DHT22;10973;46.706;12.340;2023-04-09T15:15:39;8.70;44.30
21622;DHT22;10973;46.706;12.340;2023-04-09T15:18:06;8.60;44.10
21622;DHT22;10973;46.706;12.340;2023-04-09T15:20:37;8.50;44.20
21622;DHT22;10973;46.706;12.340;2023-04-09T15:23:05;8.40;44.70
21622;DHT22;10973;46.706;12.340;2023-04-09T15:25:32;8.40;46.30
21622;DHT22;10973;46.706;12.340;2023-04-09T15:28:00;8.40;45.40
21622;DHT22;10973;46.706;12.340;2023-04-09T15:30:28;8.20;44.60
21622;DHT22;10973;46.706;12.340;2023-04-09T15:32:55;8.50;45.30
21622;DHT22;10973;46.706;12.340;2023-04-09T15:35:22;8.40;44.60
21622;DHT22;10973;46.706;12.340;2023-04-09T15:37:50;8.40;45.30
21622;DHT22;10973;46.706;12.340;2023-04-09T15:40:18;8.20;44.70
21622;DHT22;10973;46.706;12.340;2023-04-09T15:42:46;8.10;44.80
21622;DHT22;10973;46.706;12.340;2023-04-09T15:45:14;8.20;45.20
21622;DHT22;10973;46.706;12.340;2023-04-09T15:47:43;8.10;45.10
21622;DHT22;10973;46.706;12.340;2023-04-09T15:50:10;8.10;46.20
21622;DHT22;10973;46.706;12.340;2023-04-09T15:52:38;7.90;46.10
21622;DHT22;10973;46.706;12.340;2023-04-09T15:55:06;8.00;47.40
21622;DHT22;10973;46.706;12.340;2023-04-09T15:57:34;8.00;49.60
21622;DHT22;10973;46.706;12.340;2023-04-09T16:02:29;7.70;51.20
21622;DHT22;10973;46.706;12.340;2023-04-09T16:04:56;7.70;51.70
21622;DHT22;10973;46.706;12.340;2023-04-09T16:07:24;7.70;52.50
21622;DHT22;10973;46.706;12.340;2023-04-09T16:09:51;7.70;51.30
21622;DHT22;10973;46.706;12.340;2023-04-09T16:12:18;7.70;52.30
21622;DHT22;10973;46.706;12.340;2023-04-09T16:14:46;7.70;53.50
21622;DHT22;10973;46.706;12.340;2023-04-09T16:17:13;7.70;53.10
21622;DHT22;10973;46.706;12.340;2023-04-09T16:19:41;7.60;55.10
21622;DHT22;10973;46.706;12.340;2023-04-09T16:22:09;7.80;55.30
21622;DHT22;10973;46.706;12.340;2023-04-09T16:24:36;8.00;55.90
21622;DHT22;10973;46.706;12.340;2023-04-09T16:27:04;8.20;55.20
21622;DHT22;10973;46.706;12.340;2023-04-09T16:29:31;8.30;52.80
21622;DHT22;10973;46.706;12.340;2023-04-09T16:31:58;8.40;52.30